sensor_id;sensor_type;location;lat;lon;timestamp;pressure;altitude;pressure_sealevel;temperature;humidity
9784;BME280;4931;44.874;-1.092;2023-05-29T00:02:16;101003.63;;;20.15;100.00
9784;BME280;4931;44.874;-1.092;2023-05-29T00:04:42;100994.78;;;20.13;100.00
9784;BME280;4931;44.874;-1.092;2023-05-29T00:07:08;100990.16;;;20.17;100.00
9784;BME280;4931;44.874;-1.092;2023-05-29T00:09:33;100999.66;;;20.16;100.00
9784;BME280;4931;44.874;-1.092;2023-05-29T00:11:59;100993.84;;;20.09;100.00
9784;BME280;4931;44.874;-1.092;2023-05-29T00:14:26;101003.34;;;20.07;100.00
9784;BME280;4931;44.874;-1.092;2023-05-29T00:16:51;101005.38;;;19.98;100.00
9784;BME280;4931;44.874;-1.092;2023-05-29T00:19:17;101007.94;;;20.03;100.00
9784;BME280;4931;44.874;-1.092;2023-05-29T00:21:43;101013.91;;;19.93;100.00
9784;BME280;4931;44.874;-1.092;2023-05-29T00:24:09;101016.88;;;19.88;100.00
9784;BME280;4931;44.874;-1.092;2023-05-29T00:26:34;101024.38;;;19.66;100.00
9784;BME280;4931;44.874;-1.092;2023-05-29T00:29:00;101023.66;;;19.39;100.00
9784;BME280;4931;44.874;-1.092;2023-05-29T00:31:25;101039.91;;;19.29;100.00
9784;BME280;4931;44.874;-1.092;2023-05-29T00:33:51;101038.41;;;19.31;100.00
9784;BME280;4931;44.874;-1.092;2023-05-29T00:36:17;101035.31;;;19.33;100.00
9784;BME280;4931;44.874;-1.092;2023-05-29T00:38:42;101046.16;;;19.08;100.00
9784;BME280;4931;44.874;-1.092;2023-05-29T00:41:13;101039.97;;;19.11;100.00
9784;BME280;4931;44.874;-1.092;2023-05-29T00:43:39;101040.91;;;19.24;100.00
9784;BME280;4931;44.874;-1.092;2023-05-29T00:46:05;101044.66;;;19.28;100.00
9784;BME280;4931;44.874;-1.092;2023-05-29T00:48:30;101047.97;;;19.13;100.00
9784;BME280;4931;44.874;-1.092;2023-05-29T00:50:56;101047.97;;;19.13;100.00
9784;BME280;4931;44.874;-1.092;2023-05-29T00:53:22;101040.41;;;19.22;100.00
9784;BME280;4931;44.874;-1.092;2023-05-29T00:55:48;101034.00;;;19.30;100.00
9784;BME280;4931;44.874;-1.092;2023-05-29T00:58:14;101030.63;;;19.16;100.00
9784;BME280;4931;44.874;-1.092;2023-05-29T01:00:40;101032.94;;;19.14;100.00
9784;BME280;4931;44.874;-1.092;2023-05-29T01:03:06;101034.25;;;19.07;100.00
9784;BME280;4931;44.874;-1.092;2023-05-29T01:05:34;101022.97;;;19.04;100.00
9784;BME280;4931;44.874;-1.092;2023-05-29T01:08:01;101014.97;;;19.02;100.00
9784;BME280;4931;44.874;-1.092;2023-05-29T01:10:27;101004.34;;;18.96;100.00
9784;BME280;4931;44.874;-1.092;2023-05-29T01:13:07;101014.78;;;18.99;100.00
9784;BME280;4931;44.874;-1.092;2023-05-29T01:15:39;101015.63;;;18.99;100.00
9784;BME280;4931;44.874;-1.092;2023-05-29T01:21:14;101004.84;;;18.89;100.00
9784;BME280;4931;44.874;-1.092;2023-05-29T01:24:03;101005.69;;;18.81;100.00
9784;BME280;4931;44.874;-1.092;2023-05-29T01:29:10;101019.41;;;18.77;100.00
9784;BME280;4931;44.874;-1.092;2023-05-29T01:31:39;101019.56;;;18.81;100.00
9784;BME280;4931;44.874;-1.092;2023-05-29T01:34:05;101018.56;;;18.77;100.00
9784;BME280;4931;44.874;-1.092;2023-05-29T01:36:30;101022.19;;;18.68;100.00
9784;BME280;4931;44.874;-1.092;2023-05-29T01:38:58;101026.94;;;18.68;100.00
9784;BME280;4931;44.874;-1.092;2023-05-29T01:41:25;101024.50;;;18.66;100.00
9784;BME280;4931;44.874;-1.092;2023-05-29T01:43:52;101017.28;;;18.65;100.00
9784;BME280;4931;44.874;-1.092;2023-05-29T01:46:19;101020.25;;;18.60;100.00
9784;BME280;4931;44.874;-1.092;2023-05-29T01:48:46;101021.69;;;18.49;100.00
9784;BME280;4931;44.874;-1.092;2023-05-29T01:51:12;101023.81;;;18.34;100.00
9784;BME280;4931;44.874;-1.092;2023-05-29T01:53:39;101023.19;;;18.37;100.00
9784;BME280;4931;44.874;-1.092;2023-05-29T01:56:08;101021.88;;;18.26;100.00
9784;BME280;4931;44.874;-1.092;2023-05-29T01:58:38;101029.69;;;18.24;100.00
9784;BME280;4931;44.874;-1.092;2023-05-29T02:01:06;101022.19;;;18.16;100.00
9784;BME280;4931;44.874;-1.092;2023-05-29T02:03:32;101020.53;;;18.15;100.00
9784;BME280;4931;44.874;-1.092;2023-05-29T02:05:59;101015.97;;;18.01;100.00
9784;BME280;4931;44.874;-1.092;2023-05-29T02:08:26;101006.50;;;18.02;100.00
9784;BME280;4931;44.874;-1.092;2023-05-29T02:10:51;101022.81;;;17.95;100.00
9784;BME280;4931;44.874;-1.092;2023-05-29T02:13:17;101029.63;;;17.89;100.00
9784;BME280;4931;44.874;-1.092;2023-05-29T02:15:43;101032.41;;;17.89;100.00
9784;BME280;4931;44.874;-1.092;2023-05-29T02:18:10;101040.75;;;17.89;100.00
9784;BME280;4931;44.874;-1.092;2023-05-29T02:20:37;101035.81;;;17.86;100.00
9784;BME280;4931;44.874;-1.092;2023-05-29T02:23:03;101039.38;;;17.78;100.00
9784;BME280;4931;44.874;-1.092;2023-05-29T02:25:28;101050.50;;;17.78;100.00
9784;BME280;4931;44.874;-1.092;2023-05-29T02:27:54;101043.94;;;17.73;100.00
9784;BME280;4931;44.874;-1.092;2023-05-29T02:30:20;101048.50;;;17.69;100.00
9784;BME280;4931;44.874;-1.092;2023-05-29T02:32:45;101053.16;;;17.51;100.00
9784;BME280;4931;44.874;-1.092;2023-05-29T02:35:11;101053.97;;;17.52;100.00
9784;BME280;4931;44.874;-1.092;2023-05-29T02:37:40;101042.88;;;17.52;100.00
9784;BME280;4931;44.874;-1.092;2023-05-29T02:40:06;101046.34;;;17.57;100.00
9784;BME280;4931;44.874;-1.092;2023-05-29T02:42:33;101045.66;;;17.52;100.00
9784;BME280;4931;44.874;-1.092;2023-05-29T02:44:58;101046.59;;;17.38;100.00
9784;BME280;4931;44.874;-1.092;2023-05-29T02:47:24;101050.00;;;17.35;100.00
9784;BME280;4931;44.874;-1.092;2023-05-29T02:49:50;101045.09;;;17.32;100.00
9784;BME280;4931;44.874;-1.092;2023-05-29T02:52:15;101047.00;;;17.23;100.00
9784;BME280;4931;44.874;-1.092;2023-05-29T02:54:41;101032.19;;;17.28;100.00
9784;BME280;4931;44.874;-1.092;2023-05-29T02:57:06;101031.88;;;17.29;100.00
9784;BME280;4931;44.874;-1.092;2023-05-29T02:59:32;101042.09;;;17.20;100.00
9784;BME280;4931;44.874;-1.092;2023-05-29T03:01:57;101041.75;;;17.13;100.00
9784;BME280;4931;44.874;-1.092;2023-05-29T03:04:23;101033.56;;;17.07;100.00
9784;BME280;4931;44.874;-1.092;2023-05-29T03:06:48;101046.09;;;17.05;100.00
9784;BME280;4931;44.874;-1.092;2023-05-29T03:09:14;101038.91;;;17.04;100.00
9784;BME280;4931;44.874;-1.092;2023-05-29T03:11:41;101046.28;;;17.08;100.00
9784;BME280;4931;44.874;-1.092;2023-05-29T03:14:07;101041.38;;;17.05;100.00
9784;BME280;4931;44.874;-1.092;2023-05-29T03:16:32;101047.91;;;17.09;100.00
9784;BME280;4931;44.874;-1.092;2023-05-29T03:18:58;101053.69;;;16.99;100.00
9784;BME280;4931;44.874;-1.092;2023-05-29T03:21:24;101044.44;;;17.04;100.00
9784;BME280;4931;44.874;-1.092;2023-05-29T03:23:49;101048.53;;;17.06;100.00
9784;BME280;4931;44.874;-1.092;2023-05-29T03:26:15;101048.53;;;17.06;100.00
9784;BME280;4931;44.874;-1.092;2023-05-29T03:28:40;101056.34;;;17.04;100.00
9784;BME280;4931;44.874;-1.092;2023-05-29T03:31:06;101048.53;;;16.84;100.00
9784;BME280;4931;44.874;-1.092;2023-05-29T03:33:33;101046.16;;;16.91;100.00
9784;BME280;4931;44.874;-1.092;2023-05-29T03:35:59;101053.34;;;16.92;100.00
9784;BME280;4931;44.874;-1.092;2023-05-29T03:38:24;101056.09;;;16.69;100.00
9784;BME280;4931;44.874;-1.092;2023-05-29T03:40:50;101056.34;;;16.59;100.00
9784;BME280;4931;44.874;-1.092;2023-05-29T03:43:15;101065.16;;;16.84;100.00
9784;BME280;4931;44.874;-1.092;2023-05-29T03:45:40;101059.50;;;16.89;100.00
9784;BME280;4931;44.874;-1.092;2023-05-29T03:48:06;101065.84;;;16.89;100.00
9784;BME280;4931;44.874;-1.092;2023-05-29T03:50:31;101067.09;;;16.83;100.00
9784;BME280;4931;44.874;-1.092;2023-05-29T03:52:57;101070.06;;;16.87;100.00
9784;BME280;4931;44.874;-1.092;2023-05-29T03:55:22;101078.38;;;16.87;100.00
9784;BME280;4931;44.874;-1.092;2023-05-29T03:57:48;101074.47;;;16.88;100.00
9784;BME280;4931;44.874;-1.092;2023-05-29T04:00:13;101068.53;;;16.95;100.00
9784;BME280;4931;44.874;-1.092;2023-05-29T04:02:40;101072.22;;;16.90;100.00
9784;BME280;4931;44.874;-1.092;2023-05-29T04:05:07;101066.22;;;16.97;100.00
9784;BME280;4931;44.874;-1.092;2023-05-29T04:07:38;101084.16;;;16.90;100.00
9784;BME280;4931;44.874;-1.092;2023-05-29T04:10:05;101084.56;;;16.84;100.00
9784;BME280;4931;44.874;-1.092;2023-05-29T04:12:32;101083.91;;;16.87;100.00
9784;BME280;4931;44.874;-1.092;2023-05-29T04:14:58;101078.63;;;16.76;100.00
9784;BME280;4931;44.874;-1.092;2023-05-29T04:17:23;101077.25;;;16.65;100.00
9784;BME280;4931;44.874;-1.092;2023-05-29T04:19:49;101083.50;;;16.57;100.00
9784;BME280;4931;44.874;-1.092;2023-05-29T04:22:15;101086.69;;;16.64;100.00
9784;BME280;4931;44.874;-1.092;2023-05-29T04:24:40;101090.47;;;16.68;100.00
9784;BME280;4931;44.874;-1.092;2023-05-29T04:27:08;101086.56;;;16.69;100.00
9784;BME280;4931;44.874;-1.092;2023-05-29T04:29:34;101086.84;;;16.68;100.00
9784;BME280;4931;44.874;-1.092;2023-05-29T04:32:00;101088.19;;;16.70;100.00
9784;BME280;4931;44.874;-1.092;2023-05-29T04:34:28;101086.03;;;16.67;100.00
9784;BME280;4931;44.874;-1.092;2023-05-29T04:36:56;101084.59;;;16.70;100.00
9784;BME280;4931;44.874;-1.092;2023-05-29T04:39:23;101085.91;;;16.50;100.00
9784;BME280;4931;44.874;-1.092;2023-05-29T04:41:50;101091.81;;;16.57;100.00
9784;BME280;4931;44.874;-1.092;2023-05-29T04:44:17;101088.78;;;16.45;100.00
9784;BME280;4931;44.874;-1.092;2023-05-29T04:46:42;101091.25;;;16.46;100.00
9784;BME280;4931;44.874;-1.092;2023-05-29T04:49:10;101088.00;;;16.30;100.00
9784;BME280;4931;44.874;-1.092;2023-05-29T04:51:35;101087.47;;;16.42;100.00
9784;BME280;4931;44.874;-1.092;2023-05-29T04:54:01;101096.69;;;16.37;100.00
9784;BME280;4931;44.874;-1.092;2023-05-29T04:56:28;101101.09;;;16.38;100.00
9784;BME280;4931;44.874;-1.092;2023-05-29T04:58:53;101098.84;;;16.40;100.00
9784;BME280;4931;44.874;-1.092;2023-05-29T05:01:19;101101.00;;;16.30;100.00
9784;BME280;4931;44.874;-1.092;2023-05-29T05:03:45;101098.66;;;16.23;100.00
9784;BME280;4931;44.874;-1.092;2023-05-29T05:06:11;101103.75;;;16.43;100.00
9784;BME280;4931;44.874;-1.092;2023-05-29T05:08:37;101102.00;;;16.48;100.00
9784;BME280;4931;44.874;-1.092;2023-05-29T05:11:03;101099.22;;;16.48;100.00
9784;BME280;4931;44.874;-1.092;2023-05-29T05:13:29;101112.38;;;16.42;100.00
9784;BME280;4931;44.874;-1.092;2023-05-29T05:15:54;101113.59;;;16.50;100.00
9784;BME280;4931;44.874;-1.092;2023-05-29T05:18:20;101123.94;;;16.58;100.00
9784;BME280;4931;44.874;-1.092;2023-05-29T05:20:46;101111.72;;;16.59;100.00
9784;BME280;4931;44.874;-1.092;2023-05-29T05:23:12;101119.28;;;16.67;100.00
9784;BME280;4931;44.874;-1.092;2023-05-29T05:25:37;101112.88;;;16.81;100.00
9784;BME280;4931;44.874;-1.092;2023-05-29T05:28:04;101116.75;;;16.93;100.00
9784;BME280;4931;44.874;-1.092;2023-05-29T05:30:30;101119.09;;;17.00;100.00
9784;BME280;4931;44.874;-1.092;2023-05-29T05:32:56;101109.75;;;16.96;100.00
9784;BME280;4931;44.874;-1.092;2023-05-29T05:35:22;101110.41;;;16.93;100.00
9784;BME280;4931;44.874;-1.092;2023-05-29T05:37:47;101117.31;;;17.04;100.00
9784;BME280;4931;44.874;-1.092;2023-05-29T05:40:13;101122.25;;;17.07;100.00
9784;BME280;4931;44.874;-1.092;2023-05-29T05:42:38;101125.81;;;17.31;100.00
9784;BME280;4931;44.874;-1.092;2023-05-29T05:45:04;101129.03;;;17.47;100.00
9784;BME280;4931;44.874;-1.092;2023-05-29T05:47:31;101128.56;;;17.31;100.00
9784;BME280;4931;44.874;-1.092;2023-05-29T05:49:57;101125.34;;;17.37;100.00
9784;BME280;4931;44.874;-1.092;2023-05-29T05:52:23;101117.94;;;17.47;100.00
9784;BME280;4931;44.874;-1.092;2023-05-29T05:54:49;101128.19;;;17.78;100.00
9784;BME280;4931;44.874;-1.092;2023-05-29T05:57:15;101126.19;;;18.01;100.00
9784;BME280;4931;44.874;-1.092;2023-05-29T05:59:41;101127.38;;;18.26;100.00
9784;BME280;4931;44.874;-1.092;2023-05-29T06:02:06;101125.97;;;18.55;100.00
9784;BME280;4931;44.874;-1.092;2023-05-29T06:04:32;101132.03;;;18.74;100.00
9784;BME280;4931;44.874;-1.092;2023-05-29T06:06:57;101130.06;;;18.84;100.00
9784;BME280;4931;44.874;-1.092;2023-05-29T06:09:23;101133.03;;;18.96;100.00
9784;BME280;4931;44.874;-1.092;2023-05-29T06:11:50;101129.09;;;18.97;100.00
9784;BME280;4931;44.874;-1.092;2023-05-29T06:14:15;101125.66;;;19.18;100.00
9784;BME280;4931;44.874;-1.092;2023-05-29T06:16:41;101123.16;;;19.43;100.00
9784;BME280;4931;44.874;-1.092;2023-05-29T06:19:07;101125.31;;;19.76;100.00
9784;BME280;4931;44.874;-1.092;2023-05-29T06:21:33;101122.97;;;19.39;100.00
9784;BME280;4931;44.874;-1.092;2023-05-29T06:23:58;101119.50;;;19.51;100.00
9784;BME280;4931;44.874;-1.092;2023-05-29T06:26:24;101120.75;;;19.71;100.00
9784;BME280;4931;44.874;-1.092;2023-05-29T06:28:53;101121.63;;;20.01;100.00
9784;BME280;4931;44.874;-1.092;2023-05-29T06:31:18;101128.59;;;20.16;100.00
9784;BME280;4931;44.874;-1.092;2023-05-29T06:33:44;101123.47;;;20.48;100.00
9784;BME280;4931;44.874;-1.092;2023-05-29T06:36:10;101125.47;;;20.18;100.00
9784;BME280;4931;44.874;-1.092;2023-05-29T06:38:36;101126.47;;;20.64;100.00
9784;BME280;4931;44.874;-1.092;2023-05-29T06:41:02;101123.63;;;20.94;100.00
9784;BME280;4931;44.874;-1.092;2023-05-29T06:43:28;101128.78;;;21.04;100.00
9784;BME280;4931;44.874;-1.092;2023-05-29T06:45:54;101132.47;;;20.96;100.00
9784;BME280;4931;44.874;-1.092;2023-05-29T06:48:19;101134.13;;;21.43;100.00
9784;BME280;4931;44.874;-1.092;2023-05-29T06:50:47;101132.38;;;21.38;100.00
9784;BME280;4931;44.874;-1.092;2023-05-29T06:53:13;101138.50;;;21.65;100.00
9784;BME280;4931;44.874;-1.092;2023-05-29T06:55:38;101139.47;;;21.82;100.00
9784;BME280;4931;44.874;-1.092;2023-05-29T06:58:06;101130.84;;;21.75;100.00
9784;BME280;4931;44.874;-1.092;2023-05-29T07:00:31;101127.16;;;22.08;100.00
9784;BME280;4931;44.874;-1.092;2023-05-29T07:02:57;101129.47;;;22.05;100.00
9784;BME280;4931;44.874;-1.092;2023-05-29T07:05:22;101136.19;;;22.54;100.00
9784;BME280;4931;44.874;-1.092;2023-05-29T07:07:48;101128.00;;;22.61;100.00
9784;BME280;4931;44.874;-1.092;2023-05-29T07:10:14;101125.13;;;22.86;100.00
9784;BME280;4931;44.874;-1.092;2023-05-29T07:12:39;101124.22;;;22.82;100.00
9784;BME280;4931;44.874;-1.092;2023-05-29T07:15:05;101125.38;;;22.93;100.00
9784;BME280;4931;44.874;-1.092;2023-05-29T07:17:30;101131.97;;;23.29;100.00
9784;BME280;4931;44.874;-1.092;2023-05-29T07:19:56;101130.41;;;23.16;100.00
9784;BME280;4931;44.874;-1.092;2023-05-29T07:22:21;101141.28;;;23.33;100.00
9784;BME280;4931;44.874;-1.092;2023-05-29T07:24:47;101140.31;;;23.13;100.00
9784;BME280;4931;44.874;-1.092;2023-05-29T07:27:12;101151.31;;;23.34;100.00
9784;BME280;4931;44.874;-1.092;2023-05-29T07:29:38;101144.50;;;23.80;100.00
9784;BME280;4931;44.874;-1.092;2023-05-29T07:32:03;101152.69;;;23.57;100.00
9784;BME280;4931;44.874;-1.092;2023-05-29T07:34:29;101151.38;;;23.98;100.00
9784;BME280;4931;44.874;-1.092;2023-05-29T07:37:03;101154.16;;;24.14;100.00
9784;BME280;4931;44.874;-1.092;2023-05-29T07:39:30;101147.31;;;23.96;100.00
9784;BME280;4931;44.874;-1.092;2023-05-29T07:41:56;101134.03;;;24.09;100.00
9784;BME280;4931;44.874;-1.092;2023-05-29T07:44:22;101140.16;;;24.14;100.00
9784;BME280;4931;44.874;-1.092;2023-05-29T07:46:47;101145.31;;;24.48;100.00
9784;BME280;4931;44.874;-1.092;2023-05-29T07:49:13;101139.78;;;24.51;100.00
9784;BME280;4931;44.874;-1.092;2023-05-29T07:51:39;101145.53;;;24.94;100.00
9784;BME280;4931;44.874;-1.092;2023-05-29T07:54:05;101149.09;;;24.72;100.00
9784;BME280;4931;44.874;-1.092;2023-05-29T07:56:30;101143.69;;;24.82;100.00
9784;BME280;4931;44.874;-1.092;2023-05-29T07:58:58;101138.59;;;25.08;100.00
9784;BME280;4931;44.874;-1.092;2023-05-29T08:01:24;101139.75;;;25.26;100.00
9784;BME280;4931;44.874;-1.092;2023-05-29T08:03:52;101135.03;;;24.91;100.00
9784;BME280;4931;44.874;-1.092;2023-05-29T08:06:18;101130.47;;;25.02;100.00
9784;BME280;4931;44.874;-1.092;2023-05-29T08:08:44;101139.09;;;25.13;100.00
9784;BME280;4931;44.874;-1.092;2023-05-29T08:11:10;101130.91;;;25.24;100.00
9784;BME280;4931;44.874;-1.092;2023-05-29T08:13:36;101130.91;;;25.24;100.00
9784;BME280;4931;44.874;-1.092;2023-05-29T08:16:02;101125.53;;;25.35;100.00
9784;BME280;4931;44.874;-1.092;2023-05-29T08:18:31;101129.56;;;25.38;100.00
9784;BME280;4931;44.874;-1.092;2023-05-29T08:20:57;101133.94;;;25.58;100.00
9784;BME280;4931;44.874;-1.092;2023-05-29T08:23:22;101135.56;;;25.59;100.00
9784;BME280;4931;44.874;-1.092;2023-05-29T08:25:48;101140.88;;;26.11;100.00
9784;BME280;4931;44.874;-1.092;2023-05-29T08:28:14;101137.59;;;26.35;100.00
9784;BME280;4931;44.874;-1.092;2023-05-29T08:30:40;101141.59;;;26.61;100.00
9784;BME280;4931;44.874;-1.092;2023-05-29T08:33:06;101143.97;;;26.86;100.00
9784;BME280;4931;44.874;-1.092;2023-05-29T08:35:32;101136.69;;;26.28;100.00
9784;BME280;4931;44.874;-1.092;2023-05-29T08:37:58;101139.00;;;26.76;100.00
9784;BME280;4931;44.874;-1.092;2023-05-29T08:40:23;101134.66;;;27.16;100.00
9784;BME280;4931;44.874;-1.092;2023-05-29T08:43:14;101129.19;;;27.30;100.00
9784;BME280;4931;44.874;-1.092;2023-05-29T08:45:45;101127.16;;;27.69;100.00
9784;BME280;4931;44.874;-1.092;2023-05-29T08:48:13;101134.03;;;27.33;100.00
9784;BME280;4931;44.874;-1.092;2023-05-29T08:50:44;101150.94;;;27.33;100.00
9784;BME280;4931;44.874;-1.092;2023-05-29T08:53:15;101150.41;;;27.58;100.00
9784;BME280;4931;44.874;-1.092;2023-05-29T08:55:41;101151.09;;;27.93;100.00
9784;BME280;4931;44.874;-1.092;2023-05-29T08:58:08;101149.03;;;27.86;100.00
9784;BME280;4931;44.874;-1.092;2023-05-29T09:00:35;101153.13;;;27.92;100.00
9784;BME280;4931;44.874;-1.092;2023-05-29T09:03:02;101153.38;;;28.25;100.00
9784;BME280;4931;44.874;-1.092;2023-05-29T09:05:28;101154.13;;;28.18;100.00
9784;BME280;4931;44.874;-1.092;2023-05-29T09:07:55;101152.16;;;27.74;100.00
9784;BME280;4931;44.874;-1.092;2023-05-29T09:10:21;101155.19;;;27.99;100.00
9784;BME280;4931;44.874;-1.092;2023-05-29T09:12:47;101154.88;;;28.11;100.00
9784;BME280;4931;44.874;-1.092;2023-05-29T09:15:23;101154.13;;;28.18;100.00
9784;BME280;4931;44.874;-1.092;2023-05-29T09:17:53;101156.34;;;27.94;100.00
9784;BME280;4931;44.874;-1.092;2023-05-29T09:20:20;101155.50;;;27.90;100.00
9784;BME280;4931;44.874;-1.092;2023-05-29T09:22:58;101153.72;;;27.67;100.00
9784;BME280;4931;44.874;-1.092;2023-05-29T09:25:26;101154.22;;;27.80;100.00
9784;BME280;4931;44.874;-1.092;2023-05-29T09:27:55;101155.25;;;27.61;100.00
9784;BME280;4931;44.874;-1.092;2023-05-29T09:30:59;101153.00;;;27.78;100.00
9784;BME280;4931;44.874;-1.092;2023-05-29T09:33:25;101147.59;;;28.03;100.00
9784;BME280;4931;44.874;-1.092;2023-05-29T09:35:51;101144.53;;;28.30;100.00
9784;BME280;4931;44.874;-1.092;2023-05-29T09:38:19;101148.50;;;28.18;100.00
9784;BME280;4931;44.874;-1.092;2023-05-29T09:40:45;101141.81;;;28.41;100.00
9784;BME280;4931;44.874;-1.092;2023-05-29T09:43:12;101140.81;;;28.85;100.00
9784;BME280;4931;44.874;-1.092;2023-05-29T09:45:48;101152.06;;;28.67;100.00
9784;BME280;4931;44.874;-1.092;2023-05-29T09:48:23;101147.91;;;28.57;100.00
9784;BME280;4931;44.874;-1.092;2023-05-29T09:50:49;101153.41;;;29.09;100.00
9784;BME280;4931;44.874;-1.092;2023-05-29T09:53:17;101149.75;;;29.02;100.00
9784;BME280;4931;44.874;-1.092;2023-05-29T09:55:48;101152.97;;;28.89;100.00
9784;BME280;4931;44.874;-1.092;2023-05-29T09:58:15;101154.75;;;29.48;100.00
9784;BME280;4931;44.874;-1.092;2023-05-29T10:00:42;101148.31;;;29.76;100.00
9784;BME280;4931;44.874;-1.092;2023-05-29T10:03:09;101153.94;;;29.58;100.00
9784;BME280;4931;44.874;-1.092;2023-05-29T10:05:37;101151.13;;;29.69;100.00
9784;BME280;4931;44.874;-1.092;2023-05-29T10:08:04;101151.53;;;29.68;100.00
9784;BME280;4931;44.874;-1.092;2023-05-29T10:10:31;101149.09;;;29.48;100.00
9784;BME280;4931;44.874;-1.092;2023-05-29T10:12:57;101162.03;;;29.63;100.00
9784;BME280;4931;44.874;-1.092;2023-05-29T10:15:26;101165.31;;;29.87;100.00
9784;BME280;4931;44.874;-1.092;2023-05-29T10:18:16;101159.59;;;29.69;100.00
9784;BME280;4931;44.874;-1.092;2023-05-29T10:20:46;101160.00;;;29.46;100.00
9784;BME280;4931;44.874;-1.092;2023-05-29T10:23:13;101156.38;;;29.63;100.00
9784;BME280;4931;44.874;-1.092;2023-05-29T10:25:42;101163.66;;;29.64;100.00
9784;BME280;4931;44.874;-1.092;2023-05-29T10:28:10;101173.28;;;29.27;100.00
9784;BME280;4931;44.874;-1.092;2023-05-29T10:30:45;101166.00;;;29.34;100.00
9784;BME280;4931;44.874;-1.092;2023-05-29T10:36:12;101170.91;;;29.58;100.00
9784;BME280;4931;44.874;-1.092;2023-05-29T10:38:41;101168.34;;;29.10;100.00
9784;BME280;4931;44.874;-1.092;2023-05-29T10:43:58;101176.44;;;29.26;100.00
9784;BME280;4931;44.874;-1.092;2023-05-29T10:49:21;101172.50;;;29.45;100.00
9784;BME280;4931;44.874;-1.092;2023-05-29T10:51:48;101160.41;;;29.73;100.00
9784;BME280;4931;44.874;-1.092;2023-05-29T10:54:14;101169.59;;;29.23;100.00
9784;BME280;4931;44.874;-1.092;2023-05-29T10:56:40;101168.50;;;29.60;100.00
9784;BME280;4931;44.874;-1.092;2023-05-29T10:59:07;101169.19;;;29.21;100.00
9784;BME280;4931;44.874;-1.092;2023-05-29T11:01:34;101162.38;;;29.40;100.00
9784;BME280;4931;44.874;-1.092;2023-05-29T11:06:41;101164.41;;;29.40;100.00
9784;BME280;4931;44.874;-1.092;2023-05-29T11:09:29;101165.25;;;29.62;100.00
9784;BME280;4931;44.874;-1.092;2023-05-29T11:14:53;101165.31;;;29.94;100.00
9784;BME280;4931;44.874;-1.092;2023-05-29T11:25:27;101166.31;;;29.03;100.00
9784;BME280;4931;44.874;-1.092;2023-05-29T11:27:52;101169.88;;;28.86;100.00
9784;BME280;4931;44.874;-1.092;2023-05-29T11:30:21;101168.22;;;28.81;100.00
9784;BME280;4931;44.874;-1.092;2023-05-29T11:32:48;101164.41;;;29.29;100.00
9784;BME280;4931;44.874;-1.092;2023-05-29T11:35:15;101165.09;;;29.01;100.00
9784;BME280;4931;44.874;-1.092;2023-05-29T11:37:44;101163.50;;;28.37;100.00
9784;BME280;4931;44.874;-1.092;2023-05-29T11:40:11;101163.50;;;29.14;100.00
9784;BME280;4931;44.874;-1.092;2023-05-29T11:42:45;101157.91;;;29.25;100.00
9784;BME280;4931;44.874;-1.092;2023-05-29T11:47:54;101159.59;;;29.58;100.00
9784;BME280;4931;44.874;-1.092;2023-05-29T11:50:22;101154.72;;;29.37;100.00
9784;BME280;4931;44.874;-1.092;2023-05-29T11:52:48;101157.19;;;29.68;100.00
9784;BME280;4931;44.874;-1.092;2023-05-29T11:55:13;101165.28;;;29.66;100.00
9784;BME280;4931;44.874;-1.092;2023-05-29T11:57:39;101151.88;;;29.26;100.00
9784;BME280;4931;44.874;-1.092;2023-05-29T12:00:06;101147.44;;;29.36;100.00
9784;BME280;4931;44.874;-1.092;2023-05-29T12:02:33;101148.25;;;29.29;100.00
9784;BME280;4931;44.874;-1.092;2023-05-29T12:05:02;101149.06;;;29.26;100.00
9784;BME280;4931;44.874;-1.092;2023-05-29T12:07:28;101148.28;;;29.55;100.00
9784;BME280;4931;44.874;-1.092;2023-05-29T12:09:53;101136.91;;;29.26;100.00
9784;BME280;4931;44.874;-1.092;2023-05-29T12:12:23;101144.28;;;29.59;100.00
9784;BME280;4931;44.874;-1.092;2023-05-29T12:14:52;101147.06;;;29.45;100.00
9784;BME280;4931;44.874;-1.092;2023-05-29T12:17:19;101144.66;;;29.51;100.00
9784;BME280;4931;44.874;-1.092;2023-05-29T12:19:46;101140.84;;;28.92;100.00
9784;BME280;4931;44.874;-1.092;2023-05-29T12:22:11;101145.84;;;29.31;100.00
9784;BME280;4931;44.874;-1.092;2023-05-29T12:24:37;101146.97;;;29.05;100.00
9784;BME280;4931;44.874;-1.092;2023-05-29T12:27:06;101139.03;;;29.69;100.00
9784;BME280;4931;44.874;-1.092;2023-05-29T12:29:33;101138.56;;;29.38;100.00
9784;BME280;4931;44.874;-1.092;2023-05-29T12:31:58;101129.72;;;29.43;100.00
9784;BME280;4931;44.874;-1.092;2023-05-29T12:34:24;101136.03;;;28.89;100.00
9784;BME280;4931;44.874;-1.092;2023-05-29T12:36:50;101128.41;;;29.15;100.00
9784;BME280;4931;44.874;-1.092;2023-05-29T12:39:16;101133.75;;;29.42;100.00
9784;BME280;4931;44.874;-1.092;2023-05-29T12:41:41;101140.59;;;29.26;100.00
9784;BME280;4931;44.874;-1.092;2023-05-29T12:44:07;101132.06;;;29.23;100.00
9784;BME280;4931;44.874;-1.092;2023-05-29T12:46:42;101129.22;;;29.12;100.00
9784;BME280;4931;44.874;-1.092;2023-05-29T12:49:15;101128.13;;;29.42;100.00
9784;BME280;4931;44.874;-1.092;2023-05-29T12:51:43;101124.88;;;29.51;100.00
9784;BME280;4931;44.874;-1.092;2023-05-29T12:54:15;101128.84;;;29.17;100.00
9784;BME280;4931;44.874;-1.092;2023-05-29T12:56:41;101119.16;;;29.25;100.00
9784;BME280;4931;44.874;-1.092;2023-05-29T12:59:07;101119.16;;;29.25;100.00
9784;BME280;4931;44.874;-1.092;2023-05-29T13:01:33;101112.66;;;29.03;100.00
9784;BME280;4931;44.874;-1.092;2023-05-29T13:03:59;101107.06;;;29.21;100.00
9784;BME280;4931;44.874;-1.092;2023-05-29T13:06:24;101111.94;;;29.39;100.00
9784;BME280;4931;44.874;-1.092;2023-05-29T13:08:50;101111.81;;;28.95;100.00
9784;BME280;4931;44.874;-1.092;2023-05-29T13:11:16;101108.69;;;29.22;100.00
9784;BME280;4931;44.874;-1.092;2023-05-29T13:13:41;101109.81;;;28.99;100.00
9784;BME280;4931;44.874;-1.092;2023-05-29T13:16:07;101110.16;;;28.76;100.00
9784;BME280;4931;44.874;-1.092;2023-05-29T13:18:33;101097.88;;;28.40;100.00
9784;BME280;4931;44.874;-1.092;2023-05-29T13:20:59;101101.28;;;28.74;100.00